Reno, Minnesota
Current Conditions -  °F | °C
As of 2:53 AM on Thursday 18 Dec 2014 (Local Time) from KLSE Reporting Station
Overcast Overcast  
Wind Chill: 20°   Ceiling: 2000
Heat Index: 20°   Visibility: 10mi
Dew Point: 13°   Wind: 3mph
Humidity: 74%   Direction: 300°WNW
Pressure: 30.32"   Gusts: NA
Location:  43.6451°N, 91.3164°W
Report Text: KLSE 180853Z AUTO 30003KT 10SM OVC020 M07/M11 A3032 RMK AO2 SLP284 T10671106 55007
Loading
Personal Weather Stations






























Interactive Weather Map New forecast layout! Learn more

10-Day Weather Forecast

Advertisements
Track Severe Weather on mobile